createdAt,value
2017-07-21T08:17:58.895Z,4.23
2017-07-21T08:20:29.309Z,4.00
2017-07-21T08:23:00.113Z,4.03
2017-07-21T08:25:30.427Z,3.23
2017-07-21T08:28:00.729Z,3.30
2017-07-21T08:30:30.957Z,3.47
2017-07-21T08:33:03.033Z,3.10
2017-07-21T08:35:35.537Z,3.80
2017-07-21T08:38:05.921Z,3.23
2017-07-21T08:40:36.006Z,3.10
2017-07-21T08:43:14.979Z,3.70
2017-07-21T08:45:45.003Z,3.50
2017-07-21T08:48:28.626Z,2.80
2017-07-21T08:51:05.314Z,2.83
2017-07-21T08:53:35.950Z,3.00
2017-07-21T08:56:12.983Z,4.40
2017-07-21T08:58:43.591Z,3.07
2017-07-21T09:01:13.595Z,3.20
2017-07-21T09:03:43.973Z,2.60
2017-07-21T09:06:21.634Z,2.90
2017-07-21T09:08:59.853Z,3.30
2017-07-21T09:11:33.235Z,2.30
2017-07-21T09:14:13.587Z,3.00
2017-07-21T09:16:45.125Z,2.83
2017-07-21T09:19:15.595Z,2.83
2017-07-21T09:21:46.200Z,2.67
2017-07-21T09:24:23.859Z,2.30
2017-07-21T09:26:55.768Z,2.33
2017-07-21T09:29:26.139Z,2.20
2017-07-21T09:31:56.729Z,2.70
2017-07-21T09:34:38.210Z,2.17
2017-07-21T09:37:08.770Z,3.10
2017-07-21T09:39:47.040Z,2.27
2017-07-21T09:42:26.303Z,2.23
2017-07-21T09:45:04.446Z,2.10
2017-07-21T09:47:42.516Z,2.47
2017-07-21T09:50:20.431Z,2.43
2017-07-21T09:53:00.031Z,2.77
2017-07-21T09:55:36.835Z,2.10
2017-07-21T09:58:09.725Z,2.70
2017-07-21T10:00:45.903Z,2.13
2017-07-21T10:03:24.011Z,2.30
2017-07-21T10:06:02.008Z,2.00
2017-07-21T10:08:41.641Z,2.33
2017-07-21T10:11:19.657Z,2.10
2017-07-21T10:13:58.232Z,2.27
2017-07-21T10:16:36.487Z,2.10
2017-07-21T10:19:13.797Z,1.67
2017-07-21T10:21:51.307Z,1.87
2017-07-21T10:24:31.202Z,1.90
2017-07-21T10:27:08.408Z,2.20
2017-07-21T10:29:45.827Z,2.60
2017-07-21T10:32:23.795Z,1.80
2017-07-21T10:35:01.766Z,1.67
2017-07-21T10:37:37.333Z,1.97
2017-07-21T10:40:16.295Z,2.10
2017-07-21T10:42:55.183Z,1.40
2017-07-21T10:45:34.095Z,2.10
2017-07-21T10:48:09.903Z,1.83
2017-07-21T10:50:48.551Z,1.60
2017-07-21T10:53:27.043Z,2.00
2017-07-21T10:56:05.701Z,1.63
2017-07-21T10:58:42.887Z,1.50
2017-07-21T11:01:22.331Z,1.50
2017-07-21T11:03:59.335Z,1.63
2017-07-21T11:06:36.909Z,1.50
2017-07-21T11:09:13.741Z,1.57
2017-07-21T11:11:53.108Z,1.70
2017-07-21T11:14:28.369Z,1.37
2017-07-21T11:17:05.013Z,1.87
2017-07-21T11:19:43.009Z,1.50
2017-07-21T11:22:21.921Z,1.40
2017-07-21T11:24:58.557Z,1.47
2017-07-21T11:27:37.564Z,1.57
2017-07-21T11:30:15.512Z,1.23
2017-07-21T11:32:54.473Z,1.30
2017-07-21T11:35:32.443Z,1.50
2017-07-21T11:38:11.372Z,1.40
2017-07-21T11:40:48.919Z,1.33
2017-07-21T11:43:27.129Z,1.60
2017-07-21T11:46:04.123Z,1.30
2017-07-21T11:48:43.002Z,1.40
2017-07-21T11:51:21.032Z,1.50
2017-07-21T11:53:53.434Z,1.40
2017-07-21T11:56:31.234Z,1.23
2017-07-21T11:59:10.112Z,1.53
2017-07-21T12:01:47.267Z,1.57
2017-07-21T12:04:24.406Z,1.40
2017-07-21T12:07:02.174Z,1.33
2017-07-21T12:51:21.910Z,1.30
2017-07-21T12:54:03.552Z,1.40
2017-07-21T12:56:42.251Z,1.13
2017-07-21T12:59:20.519Z,1.73
2017-07-21T13:02:00.157Z,1.23
2017-07-21T13:04:38.134Z,1.20
2017-07-21T13:07:16.635Z,1.30
2017-07-21T13:09:53.780Z,1.30
2017-07-21T13:12:32.593Z,1.23
2017-07-21T13:15:10.481Z,1.20
2017-07-21T13:17:48.731Z,1.50
2017-07-21T13:20:25.473Z,1.70
2017-07-21T13:23:06.294Z,1.27
2017-07-21T13:25:46.554Z,1.27
2017-07-21T13:28:26.102Z,1.30
2017-07-21T13:31:04.052Z,1.33
2017-07-21T13:33:43.497Z,1.37
2017-07-21T13:36:22.323Z,1.40
2017-07-21T13:39:01.479Z,1.50
2017-07-21T13:41:31.723Z,1.47
2017-07-21T13:44:02.291Z,1.60
2017-07-21T13:46:35.451Z,1.30
2017-07-21T13:49:12.646Z,1.60
2017-07-21T13:51:50.224Z,1.57
2017-07-21T13:54:30.496Z,1.50
2017-07-21T13:57:09.423Z,1.27
2017-07-21T13:59:47.393Z,1.50
2017-07-21T14:02:25.855Z,1.87
2017-07-21T14:05:04.464Z,2.10
2017-07-21T14:07:37.328Z,1.87
2017-07-21T14:10:10.879Z,1.67
2017-07-21T14:12:41.263Z,1.50
2017-07-21T14:15:23.983Z,1.60
2017-07-21T14:17:54.051Z,1.80
2017-07-21T14:20:24.726Z,1.40
2017-07-21T14:22:59.245Z,1.83
2017-07-21T14:25:38.706Z,1.73
2017-07-21T14:28:17.019Z,1.80
2017-07-21T14:30:56.770Z,1.40
2017-07-21T14:33:27.277Z,1.60
2017-07-21T14:36:06.908Z,1.33
2017-07-21T14:38:42.157Z,2.10
2017-07-21T14:41:21.414Z,1.60
2017-07-21T14:43:51.559Z,2.00
2017-07-21T14:46:31.515Z,1.47
2017-07-21T14:49:09.003Z,1.83
2017-07-21T14:51:50.147Z,1.60
2017-07-21T14:54:20.499Z,1.57
2017-07-21T14:57:02.492Z,1.87
2017-07-21T14:59:32.492Z,2.57
2017-07-21T15:02:03.331Z,1.60
2017-07-21T15:04:33.730Z,2.10
2017-07-21T15:07:09.852Z,1.63
2017-07-21T15:09:40.529Z,2.20
2017-07-21T15:12:11.300Z,2.37
2017-07-21T15:14:41.779Z,2.13
2017-07-21T15:17:11.950Z,2.50
2017-07-21T15:19:51.939Z,2.83
2017-07-21T15:22:31.951Z,2.47
2017-07-21T15:25:11.627Z,2.40
2017-07-21T15:27:46.058Z,2.67
2017-07-21T15:30:25.292Z,2.80
2017-07-21T15:33:01.521Z,3.20
2017-07-21T15:35:38.577Z,2.87
2017-07-21T15:38:16.452Z,2.60
2017-07-21T15:40:46.601Z,3.13
2017-07-21T15:43:25.349Z,151.47
2017-07-21T15:46:03.138Z,79.50
2017-07-21T15:48:33.623Z,188.30
2017-07-21T15:51:10.928Z,279.60
2017-07-21T15:53:47.605Z,368.23
2017-07-21T15:56:26.761Z,431.02
2017-07-21T15:59:05.273Z,430.27
2017-07-21T16:01:43.523Z,420.20
2017-07-21T16:04:22.202Z,438.77
2017-07-21T16:07:01.615Z,410.67
2017-07-21T16:09:41.995Z,400.70
2017-07-21T16:12:20.541Z,393.63
2017-07-21T16:14:51.107Z,373.43
2017-07-21T16:17:30.311Z,369.00
2017-07-21T16:20:08.289Z,356.73
2017-07-21T16:22:46.477Z,368.23
2017-07-21T16:25:25.355Z,346.97
2017-07-21T16:28:03.846Z,346.53
2017-07-21T16:30:44.025Z,342.63
2017-07-21T16:33:22.199Z,317.27
2017-07-21T16:36:01.997Z,303.33
2017-07-21T16:38:39.829Z,291.40
2017-07-21T16:41:17.909Z,293.63
2017-07-21T16:43:56.214Z,303.77
2017-07-21T16:46:35.589Z,278.40
2017-07-21T16:49:06.029Z,271.57
2017-07-21T16:51:45.512Z,265.83
2017-07-21T16:54:21.356Z,251.33
2017-07-21T16:57:00.869Z,236.13
2017-07-21T16:59:40.158Z,246.53
2017-07-21T17:02:19.669Z,236.27
2017-07-21T17:04:57.989Z,218.63
2017-07-21T17:07:36.866Z,225.10
2017-07-21T17:10:14.837Z,212.83
2017-07-21T17:12:54.245Z,208.97
2017-07-21T17:15:32.852Z,199.07
2017-07-21T17:18:10.815Z,188.60
2017-07-21T17:20:49.247Z,190.90
2017-07-21T17:23:28.968Z,193.07
2017-07-21T17:26:07.552Z,180.77
2017-07-21T17:28:46.018Z,183.47
2017-07-21T17:31:24.040Z,171.30
2017-07-21T17:34:02.072Z,169.20
2017-07-21T17:36:40.499Z,170.73
2017-07-21T17:39:21.434Z,153.33
2017-07-21T17:41:51.840Z,154.00
2017-07-21T17:44:22.398Z,143.40
2017-07-21T17:47:03.584Z,144.63
2017-07-21T17:49:41.400Z,132.07
2017-07-21T17:52:19.007Z,130.30
2017-07-21T17:54:57.740Z,127.40
2017-07-21T17:57:35.054Z,125.73
2017-07-21T18:00:13.969Z,122.03
2017-07-21T18:02:52.611Z,118.10
2017-07-21T18:05:31.252Z,114.20
2017-07-21T18:08:08.524Z,108.63
2017-07-21T18:10:49.122Z,105.83
2017-07-21T18:13:28.862Z,105.97
2017-07-21T18:16:05.368Z,92.87
2017-07-21T18:18:42.980Z,93.07
2017-07-21T18:21:21.659Z,92.93
2017-07-21T18:23:58.645Z,88.70
2017-07-21T18:26:38.426Z,82.07
2017-07-21T18:29:15.838Z,83.30
2017-07-21T18:31:54.263Z,76.30
2017-07-21T18:34:32.614Z,75.70
2017-07-21T18:37:12.176Z,72.27
2017-07-21T18:39:52.205Z,76.30
2017-07-21T18:42:32.716Z,66.00
2017-07-21T18:45:13.487Z,68.00
2017-07-21T18:47:50.904Z,64.13
2017-07-21T18:50:28.734Z,59.07
2017-07-21T18:52:59.364Z,58.60
2017-07-21T18:55:29.684Z,55.40
2017-07-21T18:58:09.808Z,56.07
2017-07-21T19:00:45.534Z,53.03
2017-07-21T19:03:24.830Z,49.70
2017-07-21T19:05:55.256Z,47.10
2017-07-21T19:08:25.980Z,46.67
2017-07-21T19:11:03.695Z,44.07
2017-07-21T19:13:43.358Z,42.07
2017-07-21T19:16:21.782Z,42.57
2017-07-21T19:19:01.528Z,38.80
2017-07-21T19:21:38.761Z,36.07
2017-07-21T19:24:17.487Z,34.20
2017-07-21T19:26:54.249Z,38.20
2017-07-21T19:29:31.590Z,34.43
2017-07-21T19:32:10.220Z,33.27
2017-07-21T19:34:46.650Z,30.40
2017-07-21T19:37:24.850Z,28.90
2017-07-21T19:40:04.664Z,28.20
2017-07-21T19:42:41.650Z,28.90
2017-07-21T19:45:20.832Z,26.70
2017-07-21T19:47:59.669Z,24.43
2017-07-21T19:50:34.373Z,25.10
2017-07-21T19:53:12.523Z,23.00
2017-07-21T19:55:52.412Z,24.40
2017-07-21T19:58:22.661Z,22.40
2017-07-21T20:01:00.666Z,21.30
2017-07-21T20:03:39.079Z,22.20
2017-07-21T20:06:14.627Z,19.20
2017-07-21T20:08:52.964Z,19.50
2017-07-21T20:11:23.588Z,17.87
2017-07-21T20:14:03.999Z,16.90
2017-07-21T20:16:42.042Z,17.87
2017-07-21T20:19:20.380Z,16.57
2017-07-21T20:22:00.298Z,15.37
2017-07-21T20:24:38.899Z,15.07
2017-07-21T20:27:16.643Z,15.67
2017-07-21T20:29:55.436Z,14.73
2017-07-21T20:32:34.451Z,14.83
2017-07-21T20:35:11.784Z,13.57
2017-07-21T20:37:49.934Z,13.40
2017-07-21T20:40:28.532Z,12.80
2017-07-21T20:42:59.061Z,14.03
2017-07-21T20:45:29.293Z,11.60
2017-07-21T20:48:09.057Z,11.20
2017-07-21T20:50:46.723Z,12.37
2017-07-21T20:53:24.736Z,11.20
2017-07-21T20:56:03.014Z,11.20
2017-07-21T20:58:43.871Z,9.80
2017-07-21T21:01:23.100Z,9.80
2017-07-21T21:04:02.931Z,9.47
2017-07-21T21:06:40.930Z,10.27
2017-07-21T21:09:20.564Z,9.87
2017-07-21T21:11:50.779Z,8.77
2017-07-21T21:14:28.459Z,9.20
2017-07-21T21:16:58.866Z,9.40
2017-07-21T21:19:34.091Z,8.77
2017-07-21T21:22:04.530Z,8.80
2017-07-21T21:24:44.977Z,8.03
2017-07-21T21:27:22.984Z,7.40
2017-07-21T21:30:00.215Z,7.33
2017-07-21T21:32:38.778Z,7.53
2017-07-21T21:35:16.581Z,6.90
2017-07-21T21:37:55.526Z,6.70
2017-07-21T21:40:35.929Z,6.97
2017-07-21T21:43:11.175Z,6.87
2017-07-21T21:45:49.791Z,6.80
2017-07-21T21:48:20.020Z,6.40
2017-07-21T21:50:50.833Z,6.10
2017-07-21T21:53:31.163Z,6.40
2017-07-21T21:56:11.891Z,5.90
2017-07-21T21:58:51.950Z,6.23
2017-07-21T22:01:33.391Z,5.40
2017-07-21T22:04:12.541Z,6.30
2017-07-21T22:06:43.344Z,6.10
2017-07-21T22:09:13.791Z,4.90
2017-07-21T22:11:44.181Z,5.43
2017-07-21T22:14:14.744Z,4.83
2017-07-21T22:16:45.435Z,5.50
2017-07-21T22:19:23.398Z,5.27
2017-07-21T22:21:53.615Z,5.50
2017-07-21T22:24:23.787Z,4.60
2017-07-21T22:26:54.257Z,4.60
2017-07-21T22:29:26.095Z,4.60
2017-07-21T22:31:56.620Z,4.60
2017-07-21T22:34:26.996Z,4.43
2017-07-21T22:37:08.987Z,4.43
2017-07-21T22:39:39.702Z,3.87
2017-07-21T22:42:10.089Z,5.00
2017-07-21T22:44:40.811Z,3.50
2017-07-21T22:47:11.474Z,4.03
2017-07-21T22:49:42.106Z,4.00
2017-07-21T22:52:12.376Z,4.00
2017-07-21T22:54:43.227Z,3.63
2017-07-21T22:57:13.558Z,4.00
2017-07-21T22:59:44.372Z,2.90
2017-07-21T23:02:18.133Z,3.80
2017-07-21T23:04:48.737Z,3.80
2017-07-21T23:07:19.065Z,3.40
2017-07-21T23:09:50.029Z,3.13
2017-07-21T23:12:26.915Z,3.43
2017-07-21T23:14:57.360Z,3.30
2017-07-21T23:17:27.706Z,2.57
